sensor_id;sensor_type;location;lat;lon;timestamp;temperature;humidity
24035;DHT22;12242;50.952;4.678;2023-01-15T00:00:06;9.00;99.90
24035;DHT22;12242;50.952;4.678;2023-01-15T00:02:39;9.00;99.90
24035;DHT22;12242;50.952;4.678;2023-01-15T00:05:07;9.00;99.90
24035;DHT22;12242;50.952;4.678;2023-01-15T00:07:34;9.00;99.90
24035;DHT22;12242;50.952;4.678;2023-01-15T00:10:02;9.00;99.90
24035;DHT22;12242;50.952;4.678;2023-01-15T00:12:29;9.10;99.90
24035;DHT22;12242;50.952;4.678;2023-01-15T00:14:58;9.10;99.90
24035;DHT22;12242;50.952;4.678;2023-01-15T00:17:28;9.20;99.90
24035;DHT22;12242;50.952;4.678;2023-01-15T00:19:55;9.20;99.90
24035;DHT22;12242;50.952;4.678;2023-01-15T00:22:25;9.30;99.90
24035;DHT22;12242;50.952;4.678;2023-01-15T00:24:52;9.30;99.90
24035;DHT22;12242;50.952;4.678;2023-01-15T00:27:38;9.30;99.90
24035;DHT22;12242;50.952;4.678;2023-01-15T00:30:09;9.30;99.90
24035;DHT22;12242;50.952;4.678;2023-01-15T00:32:38;9.30;99.90
24035;DHT22;12242;50.952;4.678;2023-01-15T00:35:06;9.40;99.90
24035;DHT22;12242;50.952;4.678;2023-01-15T00:37:36;9.50;99.90
24035;DHT22;12242;50.952;4.678;2023-01-15T00:40:03;9.40;99.90
24035;DHT22;12242;50.952;4.678;2023-01-15T00:42:31;9.30;99.90
24035;DHT22;12242;50.952;4.678;2023-01-15T00:45:00;9.20;99.90
24035;DHT22;12242;50.952;4.678;2023-01-15T00:47:41;9.30;99.90
24035;DHT22;12242;50.952;4.678;2023-01-15T00:50:11;9.20;99.90
24035;DHT22;12242;50.952;4.678;2023-01-15T00:52:40;9.20;99.90
24035;DHT22;12242;50.952;4.678;2023-01-15T00:55:08;9.20;99.90
24035;DHT22;12242;50.952;4.678;2023-01-15T00:57:38;9.20;99.90
24035;DHT22;12242;50.952;4.678;2023-01-15T01:00:06;9.30;99.90
24035;DHT22;12242;50.952;4.678;2023-01-15T01:02:34;9.20;99.90
24035;DHT22;12242;50.952;4.678;2023-01-15T01:05:01;9.20;99.90
24035;DHT22;12242;50.952;4.678;2023-01-15T01:07:29;9.20;99.90
24035;DHT22;12242;50.952;4.678;2023-01-15T01:09:56;9.20;99.90
24035;DHT22;12242;50.952;4.678;2023-01-15T01:12:23;9.20;99.90
24035;DHT22;12242;50.952;4.678;2023-01-15T01:14:52;9.30;99.90
24035;DHT22;12242;50.952;4.678;2023-01-15T01:17:19;9.20;99.90
24035;DHT22;12242;50.952;4.678;2023-01-15T01:19:46;9.20;99.90
24035;DHT22;12242;50.952;4.678;2023-01-15T01:22:14;9.30;99.90
24035;DHT22;12242;50.952;4.678;2023-01-15T01:24:41;9.30;99.90
24035;DHT22;12242;50.952;4.678;2023-01-15T01:27:11;9.30;99.90
24035;DHT22;12242;50.952;4.678;2023-01-15T01:29:38;9.30;99.90
24035;DHT22;12242;50.952;4.678;2023-01-15T01:32:06;9.20;99.90
24035;DHT22;12242;50.952;4.678;2023-01-15T01:34:33;9.30;99.90
24035;DHT22;12242;50.952;4.678;2023-01-15T01:37:01;9.20;99.90
24035;DHT22;12242;50.952;4.678;2023-01-15T01:39:28;9.10;99.90
24035;DHT22;12242;50.952;4.678;2023-01-15T01:41:55;9.10;99.90
24035;DHT22;12242;50.952;4.678;2023-01-15T01:47:07;9.00;99.90
24035;DHT22;12242;50.952;4.678;2023-01-15T01:49:37;9.00;99.90
24035;DHT22;12242;50.952;4.678;2023-01-15T01:52:09;9.00;99.90
24035;DHT22;12242;50.952;4.678;2023-01-15T01:54:40;9.00;99.90
24035;DHT22;12242;50.952;4.678;2023-01-15T01:57:09;9.00;99.90
24035;DHT22;12242;50.952;4.678;2023-01-15T01:59:36;9.10;99.90
24035;DHT22;12242;50.952;4.678;2023-01-15T02:02:04;9.00;99.90
24035;DHT22;12242;50.952;4.678;2023-01-15T02:04:35;9.10;99.90
24035;DHT22;12242;50.952;4.678;2023-01-15T02:07:04;9.00;99.90
24035;DHT22;12242;50.952;4.678;2023-01-15T02:09:32;9.00;99.90
24035;DHT22;12242;50.952;4.678;2023-01-15T02:12:10;9.00;99.90
24035;DHT22;12242;50.952;4.678;2023-01-15T02:20:40;8.90;99.90
24035;DHT22;12242;50.952;4.678;2023-01-15T02:28:55;8.70;99.90
24035;DHT22;12242;50.952;4.678;2023-01-15T02:31:32;8.70;99.90
24035;DHT22;12242;50.952;4.678;2023-01-15T02:34:14;8.70;99.90
24035;DHT22;12242;50.952;4.678;2023-01-15T02:36:46;8.60;99.90
24035;DHT22;12242;50.952;4.678;2023-01-15T02:39:16;8.60;99.90
24035;DHT22;12242;50.952;4.678;2023-01-15T02:41:47;8.60;99.90
24035;DHT22;12242;50.952;4.678;2023-01-15T02:44:21;8.50;99.90
24035;DHT22;12242;50.952;4.678;2023-01-15T02:46:49;8.40;99.90
24035;DHT22;12242;50.952;4.678;2023-01-15T02:49:19;8.40;99.90
24035;DHT22;12242;50.952;4.678;2023-01-15T02:52:14;8.40;99.90
24035;DHT22;12242;50.952;4.678;2023-01-15T02:55:02;8.40;99.90
24035;DHT22;12242;50.952;4.678;2023-01-15T02:57:34;8.40;99.90
24035;DHT22;12242;50.952;4.678;2023-01-15T03:00:07;8.40;99.90
24035;DHT22;12242;50.952;4.678;2023-01-15T03:02:44;8.40;99.90
24035;DHT22;12242;50.952;4.678;2023-01-15T03:05:37;8.40;99.90
24035;DHT22;12242;50.952;4.678;2023-01-15T03:08:07;8.40;99.90
24035;DHT22;12242;50.952;4.678;2023-01-15T03:11:27;8.40;99.90
24035;DHT22;12242;50.952;4.678;2023-01-15T03:14:03;8.30;99.90
24035;DHT22;12242;50.952;4.678;2023-01-15T03:17:04;8.30;99.90
24035;DHT22;12242;50.952;4.678;2023-01-15T03:19:57;8.20;99.90
24035;DHT22;12242;50.952;4.678;2023-01-15T03:22:33;8.20;99.90
24035;DHT22;12242;50.952;4.678;2023-01-15T03:25:06;8.30;99.90
24035;DHT22;12242;50.952;4.678;2023-01-15T03:27:35;8.40;99.90
24035;DHT22;12242;50.952;4.678;2023-01-15T03:32:32;8.40;99.90
24035;DHT22;12242;50.952;4.678;2023-01-15T03:35:00;8.40;99.90
24035;DHT22;12242;50.952;4.678;2023-01-15T03:37:30;8.30;99.90
24035;DHT22;12242;50.952;4.678;2023-01-15T03:39:58;8.30;99.90
24035;DHT22;12242;50.952;4.678;2023-01-15T03:45:27;8.20;99.90
24035;DHT22;12242;50.952;4.678;2023-01-15T03:48:25;8.20;99.90
24035;DHT22;12242;50.952;4.678;2023-01-15T03:53:49;8.20;99.90
24035;DHT22;12242;50.952;4.678;2023-01-15T03:59:05;8.20;99.90
24035;DHT22;12242;50.952;4.678;2023-01-15T04:01:37;8.20;99.90
24035;DHT22;12242;50.952;4.678;2023-01-15T04:04:06;8.20;99.90
24035;DHT22;12242;50.952;4.678;2023-01-15T04:06:35;8.10;99.90
24035;DHT22;12242;50.952;4.678;2023-01-15T04:09:07;8.10;99.90
24035;DHT22;12242;50.952;4.678;2023-01-15T04:11:37;8.10;99.90
24035;DHT22;12242;50.952;4.678;2023-01-15T04:14:05;8.00;99.90
24035;DHT22;12242;50.952;4.678;2023-01-15T04:16:33;8.00;99.90
24035;DHT22;12242;50.952;4.678;2023-01-15T04:19:03;8.00;99.90
24035;DHT22;12242;50.952;4.678;2023-01-15T04:21:30;8.10;99.90
24035;DHT22;12242;50.952;4.678;2023-01-15T04:23:58;8.00;99.90
24035;DHT22;12242;50.952;4.678;2023-01-15T04:26:25;7.90;99.90
24035;DHT22;12242;50.952;4.678;2023-01-15T04:28:52;7.90;99.90
24035;DHT22;12242;50.952;4.678;2023-01-15T04:31:20;7.90;99.90
24035;DHT22;12242;50.952;4.678;2023-01-15T04:33:47;7.90;99.90
24035;DHT22;12242;50.952;4.678;2023-01-15T04:36:17;7.80;99.90
24035;DHT22;12242;50.952;4.678;2023-01-15T04:38:46;7.80;99.90
24035;DHT22;12242;50.952;4.678;2023-01-15T04:41:14;7.80;99.90
24035;DHT22;12242;50.952;4.678;2023-01-15T04:44:00;7.90;99.90
24035;DHT22;12242;50.952;4.678;2023-01-15T04:46:34;7.90;99.90
24035;DHT22;12242;50.952;4.678;2023-01-15T04:49:03;7.90;99.90
24035;DHT22;12242;50.952;4.678;2023-01-15T04:51:30;7.80;99.90
24035;DHT22;12242;50.952;4.678;2023-01-15T04:53:57;7.80;99.90
24035;DHT22;12242;50.952;4.678;2023-01-15T04:56:27;7.80;99.90
24035;DHT22;12242;50.952;4.678;2023-01-15T04:58:55;7.80;99.90
24035;DHT22;12242;50.952;4.678;2023-01-15T05:01:22;7.80;99.90
24035;DHT22;12242;50.952;4.678;2023-01-15T05:03:52;7.80;99.90
24035;DHT22;12242;50.952;4.678;2023-01-15T05:06:19;7.80;99.90
24035;DHT22;12242;50.952;4.678;2023-01-15T05:08:49;7.80;99.90
24035;DHT22;12242;50.952;4.678;2023-01-15T05:11:16;7.80;99.90
24035;DHT22;12242;50.952;4.678;2023-01-15T05:13:43;7.80;99.90
24035;DHT22;12242;50.952;4.678;2023-01-15T05:16:17;7.80;99.90
24035;DHT22;12242;50.952;4.678;2023-01-15T05:18:47;7.80;99.90
24035;DHT22;12242;50.952;4.678;2023-01-15T05:21:16;7.80;99.90
24035;DHT22;12242;50.952;4.678;2023-01-15T05:23:47;7.80;99.90
24035;DHT22;12242;50.952;4.678;2023-01-15T05:26:16;7.80;99.90
24035;DHT22;12242;50.952;4.678;2023-01-15T05:28:44;7.70;99.90
24035;DHT22;12242;50.952;4.678;2023-01-15T05:31:13;7.60;99.90
24035;DHT22;12242;50.952;4.678;2023-01-15T05:33:42;7.60;99.90
24035;DHT22;12242;50.952;4.678;2023-01-15T05:36:12;7.60;99.90
24035;DHT22;12242;50.952;4.678;2023-01-15T05:38:42;7.60;99.90
24035;DHT22;12242;50.952;4.678;2023-01-15T05:41:13;7.60;99.90
24035;DHT22;12242;50.952;4.678;2023-01-15T05:44:05;7.60;99.90
24035;DHT22;12242;50.952;4.678;2023-01-15T05:46:33;7.50;99.90
24035;DHT22;12242;50.952;4.678;2023-01-15T05:49:02;7.50;99.90
24035;DHT22;12242;50.952;4.678;2023-01-15T05:51:30;7.50;99.90
24035;DHT22;12242;50.952;4.678;2023-01-15T05:53:57;7.50;99.90
24035;DHT22;12242;50.952;4.678;2023-01-15T05:56:27;7.50;99.90
24035;DHT22;12242;50.952;4.678;2023-01-15T05:58:57;7.50;99.90
24035;DHT22;12242;50.952;4.678;2023-01-15T06:01:26;7.50;99.90
24035;DHT22;12242;50.952;4.678;2023-01-15T06:04:01;7.50;99.90
24035;DHT22;12242;50.952;4.678;2023-01-15T06:06:29;7.50;99.90
24035;DHT22;12242;50.952;4.678;2023-01-15T06:08:59;7.60;99.90
24035;DHT22;12242;50.952;4.678;2023-01-15T06:11:27;7.60;99.90
24035;DHT22;12242;50.952;4.678;2023-01-15T06:13:55;7.60;99.90
24035;DHT22;12242;50.952;4.678;2023-01-15T06:16:22;7.50;99.90
24035;DHT22;12242;50.952;4.678;2023-01-15T06:18:52;7.50;99.90
24035;DHT22;12242;50.952;4.678;2023-01-15T06:21:20;7.30;99.90
24035;DHT22;12242;50.952;4.678;2023-01-15T06:23:47;7.10;99.90
24035;DHT22;12242;50.952;4.678;2023-01-15T06:26:16;6.90;99.90
24035;DHT22;12242;50.952;4.678;2023-01-15T06:28:46;6.90;99.90
24035;DHT22;12242;50.952;4.678;2023-01-15T06:31:18;6.80;99.90
24035;DHT22;12242;50.952;4.678;2023-01-15T06:33:46;6.70;99.90
24035;DHT22;12242;50.952;4.678;2023-01-15T06:36:16;6.80;99.90
24035;DHT22;12242;50.952;4.678;2023-01-15T06:38:44;6.80;99.90
24035;DHT22;12242;50.952;4.678;2023-01-15T06:41:16;6.70;99.90
24035;DHT22;12242;50.952;4.678;2023-01-15T06:44:03;6.70;99.90
24035;DHT22;12242;50.952;4.678;2023-01-15T06:46:50;6.60;99.90
24035;DHT22;12242;50.952;4.678;2023-01-15T06:49:36;6.60;99.90
24035;DHT22;12242;50.952;4.678;2023-01-15T06:52:04;6.60;99.90
24035;DHT22;12242;50.952;4.678;2023-01-15T06:54:33;6.70;99.90
24035;DHT22;12242;50.952;4.678;2023-01-15T06:57:03;6.60;99.90
24035;DHT22;12242;50.952;4.678;2023-01-15T06:59:33;6.60;99.90
24035;DHT22;12242;50.952;4.678;2023-01-15T07:02:01;6.60;99.90
24035;DHT22;12242;50.952;4.678;2023-01-15T07:04:30;6.60;99.90
24035;DHT22;12242;50.952;4.678;2023-01-15T07:06:58;6.70;99.90
24035;DHT22;12242;50.952;4.678;2023-01-15T07:09:25;6.60;99.90
24035;DHT22;12242;50.952;4.678;2023-01-15T07:11:52;6.60;99.90
24035;DHT22;12242;50.952;4.678;2023-01-15T07:14:24;6.50;99.90
24035;DHT22;12242;50.952;4.678;2023-01-15T07:16:52;6.50;99.90
24035;DHT22;12242;50.952;4.678;2023-01-15T07:19:24;6.50;99.90
24035;DHT22;12242;50.952;4.678;2023-01-15T07:21:52;6.50;99.90
24035;DHT22;12242;50.952;4.678;2023-01-15T07:24:19;6.50;99.90
24035;DHT22;12242;50.952;4.678;2023-01-15T07:26:46;6.40;99.90
24035;DHT22;12242;50.952;4.678;2023-01-15T07:29:14;6.30;99.90
24035;DHT22;12242;50.952;4.678;2023-01-15T07:31:41;6.40;99.90
24035;DHT22;12242;50.952;4.678;2023-01-15T07:34:11;6.40;99.90
24035;DHT22;12242;50.952;4.678;2023-01-15T07:36:38;6.50;99.90
24035;DHT22;12242;50.952;4.678;2023-01-15T07:39:07;6.50;99.90
24035;DHT22;12242;50.952;4.678;2023-01-15T07:41:36;6.40;99.90
24035;DHT22;12242;50.952;4.678;2023-01-15T07:44:24;6.40;99.90
24035;DHT22;12242;50.952;4.678;2023-01-15T07:47:22;6.40;99.90
24035;DHT22;12242;50.952;4.678;2023-01-15T07:50:16;6.40;99.90
24035;DHT22;12242;50.952;4.678;2023-01-15T07:52:43;6.40;99.90
24035;DHT22;12242;50.952;4.678;2023-01-15T07:55:11;6.40;99.90
24035;DHT22;12242;50.952;4.678;2023-01-15T07:57:42;6.40;99.90
24035;DHT22;12242;50.952;4.678;2023-01-15T08:00:17;6.40;99.90
24035;DHT22;12242;50.952;4.678;2023-01-15T08:02:45;6.50;99.90
24035;DHT22;12242;50.952;4.678;2023-01-15T08:05:16;6.50;99.90
24035;DHT22;12242;50.952;4.678;2023-01-15T08:07:46;6.50;99.90
24035;DHT22;12242;50.952;4.678;2023-01-15T08:10:15;6.40;99.90
24035;DHT22;12242;50.952;4.678;2023-01-15T08:12:42;6.40;99.90
24035;DHT22;12242;50.952;4.678;2023-01-15T08:15:33;6.40;99.90
24035;DHT22;12242;50.952;4.678;2023-01-15T08:18:04;6.40;99.90
24035;DHT22;12242;50.952;4.678;2023-01-15T08:20:36;6.40;99.90
24035;DHT22;12242;50.952;4.678;2023-01-15T08:23:04;6.40;99.90
24035;DHT22;12242;50.952;4.678;2023-01-15T08:25:34;6.40;99.90
24035;DHT22;12242;50.952;4.678;2023-01-15T08:28:02;6.50;99.90
24035;DHT22;12242;50.952;4.678;2023-01-15T08:30:29;6.60;99.90
24035;DHT22;12242;50.952;4.678;2023-01-15T08:33:00;6.70;99.90
24035;DHT22;12242;50.952;4.678;2023-01-15T08:35:30;6.70;99.90
24035;DHT22;12242;50.952;4.678;2023-01-15T08:37:57;6.80;99.90
24035;DHT22;12242;50.952;4.678;2023-01-15T08:40:26;6.90;99.90
24035;DHT22;12242;50.952;4.678;2023-01-15T08:42:56;6.90;99.90
24035;DHT22;12242;50.952;4.678;2023-01-15T08:45:25;6.90;99.90
24035;DHT22;12242;50.952;4.678;2023-01-15T08:47:58;7.20;99.90
24035;DHT22;12242;50.952;4.678;2023-01-15T08:50:26;7.60;99.90
24035;DHT22;12242;50.952;4.678;2023-01-15T08:52:53;7.70;99.90
24035;DHT22;12242;50.952;4.678;2023-01-15T08:55:20;7.60;99.90
24035;DHT22;12242;50.952;4.678;2023-01-15T08:57:48;7.50;99.90
24035;DHT22;12242;50.952;4.678;2023-01-15T09:00:15;7.50;99.90
24035;DHT22;12242;50.952;4.678;2023-01-15T09:02:46;7.60;99.90
24035;DHT22;12242;50.952;4.678;2023-01-15T09:05:18;7.70;99.90
24035;DHT22;12242;50.952;4.678;2023-01-15T09:07:46;8.00;99.90
24035;DHT22;12242;50.952;4.678;2023-01-15T09:10:13;8.20;99.90
24035;DHT22;12242;50.952;4.678;2023-01-15T09:12:41;8.30;99.90
24035;DHT22;12242;50.952;4.678;2023-01-15T09:15:09;8.40;99.90
24035;DHT22;12242;50.952;4.678;2023-01-15T09:17:36;8.50;99.90
24035;DHT22;12242;50.952;4.678;2023-01-15T09:20:09;8.60;99.90
24035;DHT22;12242;50.952;4.678;2023-01-15T09:22:39;8.90;99.90
24035;DHT22;12242;50.952;4.678;2023-01-15T09:25:09;9.50;99.90
24035;DHT22;12242;50.952;4.678;2023-01-15T09:27:41;10.30;99.90
24035;DHT22;12242;50.952;4.678;2023-01-15T09:30:20;10.70;99.90
24035;DHT22;12242;50.952;4.678;2023-01-15T09:32:48;11.00;99.90
24035;DHT22;12242;50.952;4.678;2023-01-15T09:35:15;11.20;99.90
24035;DHT22;12242;50.952;4.678;2023-01-15T09:37:43;11.60;99.90
24035;DHT22;12242;50.952;4.678;2023-01-15T09:40:47;11.50;99.90
24035;DHT22;12242;50.952;4.678;2023-01-15T09:52:05;10.20;99.90
24035;DHT22;12242;50.952;4.678;2023-01-15T09:57:03;9.60;99.90
24035;DHT22;12242;50.952;4.678;2023-01-15T09:59:34;10.30;99.90
24035;DHT22;12242;50.952;4.678;2023-01-15T10:04:50;9.60;99.90
24035;DHT22;12242;50.952;4.678;2023-01-15T10:10:23;9.20;99.90
24035;DHT22;12242;50.952;4.678;2023-01-15T10:13:22;9.30;99.90
24035;DHT22;12242;50.952;4.678;2023-01-15T10:15:49;9.60;99.90
24035;DHT22;12242;50.952;4.678;2023-01-15T10:18:24;9.60;99.90
24035;DHT22;12242;50.952;4.678;2023-01-15T10:21:30;9.10;99.90
24035;DHT22;12242;50.952;4.678;2023-01-15T10:24:18;8.60;99.90
24035;DHT22;12242;50.952;4.678;2023-01-15T10:26:57;8.90;99.90
24035;DHT22;12242;50.952;4.678;2023-01-15T10:29:43;8.90;99.90
24035;DHT22;12242;50.952;4.678;2023-01-15T10:35:20;8.20;99.90
24035;DHT22;12242;50.952;4.678;2023-01-15T10:45:50;8.50;99.90
24035;DHT22;12242;50.952;4.678;2023-01-15T10:51:22;8.90;99.90
24035;DHT22;12242;50.952;4.678;2023-01-15T10:59:49;11.90;99.90
24035;DHT22;12242;50.952;4.678;2023-01-15T11:05:03;12.30;99.90
24035;DHT22;12242;50.952;4.678;2023-01-15T11:07:48;12.90;99.90
24035;DHT22;12242;50.952;4.678;2023-01-15T11:10:39;12.90;99.90
24035;DHT22;12242;50.952;4.678;2023-01-15T11:13:20;13.10;99.90
24035;DHT22;12242;50.952;4.678;2023-01-15T11:16:15;13.20;99.90
24035;DHT22;12242;50.952;4.678;2023-01-15T11:19:05;12.20;99.90
24035;DHT22;12242;50.952;4.678;2023-01-15T11:21:55;11.60;99.90
24035;DHT22;12242;50.952;4.678;2023-01-15T11:24:25;11.50;99.90
24035;DHT22;12242;50.952;4.678;2023-01-15T11:26:55;11.90;99.90
24035;DHT22;12242;50.952;4.678;2023-01-15T11:29:32;12.30;99.90
24035;DHT22;12242;50.952;4.678;2023-01-15T11:32:03;12.20;99.90
24035;DHT22;12242;50.952;4.678;2023-01-15T11:34:35;11.20;99.90
24035;DHT22;12242;50.952;4.678;2023-01-15T11:37:04;11.20;99.90
24035;DHT22;12242;50.952;4.678;2023-01-15T11:39:34;10.80;99.90
24035;DHT22;12242;50.952;4.678;2023-01-15T11:42:04;10.50;99.90
24035;DHT22;12242;50.952;4.678;2023-01-15T11:44:52;10.60;99.90
24035;DHT22;12242;50.952;4.678;2023-01-15T11:47:38;10.90;99.90
24035;DHT22;12242;50.952;4.678;2023-01-15T11:50:26;11.70;99.90
24035;DHT22;12242;50.952;4.678;2023-01-15T11:53:19;11.80;99.90
24035;DHT22;12242;50.952;4.678;2023-01-15T11:55:58;12.40;99.90
24035;DHT22;12242;50.952;4.678;2023-01-15T11:58:33;11.30;99.90
24035;DHT22;12242;50.952;4.678;2023-01-15T12:01:00;10.60;99.90
24035;DHT22;12242;50.952;4.678;2023-01-15T12:03:33;10.30;99.90
24035;DHT22;12242;50.952;4.678;2023-01-15T12:06:06;10.40;99.90
24035;DHT22;12242;50.952;4.678;2023-01-15T12:12:14;9.80;99.90
24035;DHT22;12242;50.952;4.678;2023-01-15T12:17:49;9.50;99.90
24035;DHT22;12242;50.952;4.678;2023-01-15T12:21:23;9.40;99.90
24035;DHT22;12242;50.952;4.678;2023-01-15T12:26:19;9.20;99.90
24035;DHT22;12242;50.952;4.678;2023-01-15T12:29:17;9.20;99.90
24035;DHT22;12242;50.952;4.678;2023-01-15T12:32:01;9.20;99.90
24035;DHT22;12242;50.952;4.678;2023-01-15T12:35:01;9.20;99.90
24035;DHT22;12242;50.952;4.678;2023-01-15T12:38:02;9.30;99.90
24035;DHT22;12242;50.952;4.678;2023-01-15T12:40:57;10.10;99.90
24035;DHT22;12242;50.952;4.678;2023-01-15T12:43:27;10.00;99.90
24035;DHT22;12242;50.952;4.678;2023-01-15T12:46:24;9.70;99.90
24035;DHT22;12242;50.952;4.678;2023-01-15T12:51:49;9.00;99.90
24035;DHT22;12242;50.952;4.678;2023-01-15T12:54:27;8.90;99.90
24035;DHT22;12242;50.952;4.678;2023-01-15T12:57:23;8.90;99.90
24035;DHT22;12242;50.952;4.678;2023-01-15T13:00:04;8.90;99.90
24035;DHT22;12242;50.952;4.678;2023-01-15T13:06:05;8.80;99.90
24035;DHT22;12242;50.952;4.678;2023-01-15T13:11:12;9.10;99.90
24035;DHT22;12242;50.952;4.678;2023-01-15T13:13:41;9.10;99.90
24035;DHT22;12242;50.952;4.678;2023-01-15T13:18:56;9.10;99.90
24035;DHT22;12242;50.952;4.678;2023-01-15T13:21:33;9.30;99.90
24035;DHT22;12242;50.952;4.678;2023-01-15T13:24:19;9.40;99.90
24035;DHT22;12242;50.952;4.678;2023-01-15T13:27:16;9.50;99.90
24035;DHT22;12242;50.952;4.678;2023-01-15T13:32:32;10.00;99.90
24035;DHT22;12242;50.952;4.678;2023-01-15T13:35:04;9.80;99.90
24035;DHT22;12242;50.952;4.678;2023-01-15T13:37:44;9.70;99.90
24035;DHT22;12242;50.952;4.678;2023-01-15T13:40:29;9.40;99.90
24035;DHT22;12242;50.952;4.678;2023-01-15T13:42:59;9.30;99.90
24035;DHT22;12242;50.952;4.678;2023-01-15T13:45:39;9.20;99.90
24035;DHT22;12242;50.952;4.678;2023-01-15T13:48:14;9.10;99.90
24035;DHT22;12242;50.952;4.678;2023-01-15T13:50:51;9.00;99.90
24035;DHT22;12242;50.952;4.678;2023-01-15T13:53:31;9.10;99.90
24035;DHT22;12242;50.952;4.678;2023-01-15T13:56:05;9.00;99.90
24035;DHT22;12242;50.952;4.678;2023-01-15T13:58:38;8.80;99.90
24035;DHT22;12242;50.952;4.678;2023-01-15T14:04:03;8.40;99.90
24035;DHT22;12242;50.952;4.678;2023-01-15T14:06:39;8.20;99.90
24035;DHT22;12242;50.952;4.678;2023-01-15T14:09:25;8.10;99.90
24035;DHT22;12242;50.952;4.678;2023-01-15T14:15:20;7.90;99.90
24035;DHT22;12242;50.952;4.678;2023-01-15T14:18:09;7.90;99.90
24035;DHT22;12242;50.952;4.678;2023-01-15T14:23:57;7.70;99.90
24035;DHT22;12242;50.952;4.678;2023-01-15T14:34:32;7.80;99.90
24035;DHT22;12242;50.952;4.678;2023-01-15T14:37:20;7.90;99.90
24035;DHT22;12242;50.952;4.678;2023-01-15T14:40:02;7.90;99.90
24035;DHT22;12242;50.952;4.678;2023-01-15T14:42:36;7.90;99.90
24035;DHT22;12242;50.952;4.678;2023-01-15T14:45:28;7.90;99.90
24035;DHT22;12242;50.952;4.678;2023-01-15T14:48:03;8.00;99.90
24035;DHT22;12242;50.952;4.678;2023-01-15T14:50:41;8.40;99.90
24035;DHT22;12242;50.952;4.678;2023-01-15T14:56:03;8.50;99.90
24035;DHT22;12242;50.952;4.678;2023-01-15T15:04:21;8.10;99.90
24035;DHT22;12242;50.952;4.678;2023-01-15T15:07:10;8.10;99.90
24035;DHT22;12242;50.952;4.678;2023-01-15T15:23:33;7.70;99.90
24035;DHT22;12242;50.952;4.678;2023-01-15T15:26:14;7.60;99.90
24035;DHT22;12242;50.952;4.678;2023-01-15T15:28:54;7.60;99.90
24035;DHT22;12242;50.952;4.678;2023-01-15T15:31:23;7.60;99.90
24035;DHT22;12242;50.952;4.678;2023-01-15T15:33:57;7.60;99.90
24035;DHT22;12242;50.952;4.678;2023-01-15T15:36:30;7.60;99.90
24035;DHT22;12242;50.952;4.678;2023-01-15T15:39:33;7.60;99.90
24035;DHT22;12242;50.952;4.678;2023-01-15T15:42:03;7.60;99.90
24035;DHT22;12242;50.952;4.678;2023-01-15T15:44:55;7.60;99.90
24035;DHT22;12242;50.952;4.678;2023-01-15T15:47:43;7.60;99.90
24035;DHT22;12242;50.952;4.678;2023-01-15T15:50:33;7.60;99.90
24035;DHT22;12242;50.952;4.678;2023-01-15T15:53:01;7.60;99.90
24035;DHT22;12242;50.952;4.678;2023-01-15T15:55:41;7.60;99.90
24035;DHT22;12242;50.952;4.678;2023-01-15T15:58:37;7.60;99.90
24035;DHT22;12242;50.952;4.678;2023-01-15T16:01:09;7.50;99.90
24035;DHT22;12242;50.952;4.678;2023-01-15T16:03:45;7.50;99.90
24035;DHT22;12242;50.952;4.678;2023-01-15T16:06:20;7.40;99.90
24035;DHT22;12242;50.952;4.678;2023-01-15T16:08:52;7.30;99.90
24035;DHT22;12242;50.952;4.678;2023-01-15T16:11:26;7.40;99.90
24035;DHT22;12242;50.952;4.678;2023-01-15T16:13:58;7.30;99.90
24035;DHT22;12242;50.952;4.678;2023-01-15T16:16:29;7.40;99.90
24035;DHT22;12242;50.952;4.678;2023-01-15T16:18:58;7.30;99.90
24035;DHT22;12242;50.952;4.678;2023-01-15T16:21:32;7.30;99.90
24035;DHT22;12242;50.952;4.678;2023-01-15T16:24:04;7.20;99.90
24035;DHT22;12242;50.952;4.678;2023-01-15T16:26:44;7.10;99.90
24035;DHT22;12242;50.952;4.678;2023-01-15T16:29:25;7.00;99.90
24035;DHT22;12242;50.952;4.678;2023-01-15T16:31:53;6.90;99.90
24035;DHT22;12242;50.952;4.678;2023-01-15T16:34:28;6.90;99.90
24035;DHT22;12242;50.952;4.678;2023-01-15T16:36:59;6.80;99.90
24035;DHT22;12242;50.952;4.678;2023-01-15T16:39:44;6.70;99.90
24035;DHT22;12242;50.952;4.678;2023-01-15T16:42:29;6.60;99.90
24035;DHT22;12242;50.952;4.678;2023-01-15T16:45:26;6.50;99.90
24035;DHT22;12242;50.952;4.678;2023-01-15T16:50:32;6.40;99.90
24035;DHT22;12242;50.952;4.678;2023-01-15T16:53:03;6.40;99.90
24035;DHT22;12242;50.952;4.678;2023-01-15T16:55:40;6.50;99.90
24035;DHT22;12242;50.952;4.678;2023-01-15T16:58:15;6.50;99.90
24035;DHT22;12242;50.952;4.678;2023-01-15T17:03:20;6.50;99.90
24035;DHT22;12242;50.952;4.678;2023-01-15T17:05:52;6.60;99.90
24035;DHT22;12242;50.952;4.678;2023-01-15T17:08:41;6.60;99.90
24035;DHT22;12242;50.952;4.678;2023-01-15T17:11:20;6.70;99.90
24035;DHT22;12242;50.952;4.678;2023-01-15T17:13:50;6.70;99.90
24035;DHT22;12242;50.952;4.678;2023-01-15T17:16:21;6.70;99.90
24035;DHT22;12242;50.952;4.678;2023-01-15T17:18:50;6.70;99.90
24035;DHT22;12242;50.952;4.678;2023-01-15T17:21:23;6.80;99.90
24035;DHT22;12242;50.952;4.678;2023-01-15T17:23:55;6.80;99.90
24035;DHT22;12242;50.952;4.678;2023-01-15T17:26:24;7.00;99.90
24035;DHT22;12242;50.952;4.678;2023-01-15T17:28:53;7.00;99.90
24035;DHT22;12242;50.952;4.678;2023-01-15T17:31:31;7.00;99.90
24035;DHT22;12242;50.952;4.678;2023-01-15T17:34:04;6.90;99.90
24035;DHT22;12242;50.952;4.678;2023-01-15T17:36:33;6.80;99.90
24035;DHT22;12242;50.952;4.678;2023-01-15T17:39:01;6.80;99.90
24035;DHT22;12242;50.952;4.678;2023-01-15T17:41:30;6.70;99.90
24035;DHT22;12242;50.952;4.678;2023-01-15T17:43:58;6.50;99.90
24035;DHT22;12242;50.952;4.678;2023-01-15T17:46:25;6.30;99.90
24035;DHT22;12242;50.952;4.678;2023-01-15T17:48:52;6.20;99.90
24035;DHT22;12242;50.952;4.678;2023-01-15T17:51:19;6.10;99.90
24035;DHT22;12242;50.952;4.678;2023-01-15T17:53:47;6.10;99.90
24035;DHT22;12242;50.952;4.678;2023-01-15T17:56:20;6.10;99.90
24035;DHT22;12242;50.952;4.678;2023-01-15T17:59:07;6.00;99.90
24035;DHT22;12242;50.952;4.678;2023-01-15T18:01:57;6.10;99.90
24035;DHT22;12242;50.952;4.678;2023-01-15T18:04:50;6.20;99.90
24035;DHT22;12242;50.952;4.678;2023-01-15T18:07:39;6.20;99.90
24035;DHT22;12242;50.952;4.678;2023-01-15T18:10:10;6.30;99.90
24035;DHT22;12242;50.952;4.678;2023-01-15T18:12:43;6.50;99.90
24035;DHT22;12242;50.952;4.678;2023-01-15T18:15:11;6.50;99.90
24035;DHT22;12242;50.952;4.678;2023-01-15T18:17:40;6.50;99.90
24035;DHT22;12242;50.952;4.678;2023-01-15T18:20:10;6.50;99.90
24035;DHT22;12242;50.952;4.678;2023-01-15T18:22:38;6.40;99.90
24035;DHT22;12242;50.952;4.678;2023-01-15T18:25:05;6.50;99.90
24035;DHT22;12242;50.952;4.678;2023-01-15T18:27:33;6.50;99.90
24035;DHT22;12242;50.952;4.678;2023-01-15T18:30:03;6.40;99.90
24035;DHT22;12242;50.952;4.678;2023-01-15T18:32:33;6.50;99.90
24035;DHT22;12242;50.952;4.678;2023-01-15T18:35:00;6.50;99.90
24035;DHT22;12242;50.952;4.678;2023-01-15T18:37:31;6.60;99.90
24035;DHT22;12242;50.952;4.678;2023-01-15T18:39:59;6.60;99.90